createdAt,value
2023-05-21T00:00:16.417Z,14.60
2023-05-21T00:02:45.885Z,14.60
2023-05-21T00:05:15.545Z,14.60
2023-05-21T00:07:44.062Z,14.50
2023-05-21T00:10:12.578Z,14.50
2023-05-21T00:12:41.744Z,14.60
2023-05-21T00:15:11.057Z,14.50
2023-05-21T00:17:40.126Z,14.30
2023-05-21T00:20:10.250Z,14.20
2023-05-21T00:22:38.256Z,14.10
2023-05-21T00:25:07.138Z,13.90
2023-05-21T00:27:35.201Z,13.90
2023-05-21T00:30:03.390Z,13.80
2023-05-21T00:32:31.412Z,13.70
2023-05-21T00:34:59.399Z,13.60
2023-05-21T00:37:32.725Z,13.50
2023-05-21T00:40:00.809Z,13.40
2023-05-21T00:42:30.787Z,13.30
2023-05-21T00:44:59.018Z,13.20
2023-05-21T00:47:29.733Z,13.00
2023-05-21T00:49:57.836Z,12.90
2023-05-21T00:52:27.123Z,12.80
2023-05-21T00:54:56.986Z,12.70
2023-05-21T00:57:28.063Z,12.60
2023-05-21T00:59:56.377Z,12.50
2023-05-21T01:02:26.166Z,12.50
2023-05-21T01:04:55.918Z,12.40
2023-05-21T01:07:24.110Z,12.30
2023-05-21T01:09:52.235Z,12.30
2023-05-21T01:12:22.374Z,12.30
2023-05-21T01:14:51.473Z,12.20
2023-05-21T01:17:20.894Z,12.20
2023-05-21T01:19:49.093Z,12.10
2023-05-21T01:22:19.116Z,12.00
2023-05-21T01:24:51.193Z,12.00
2023-05-21T01:27:19.195Z,11.90
2023-05-21T01:29:47.161Z,11.90
2023-05-21T01:32:20.199Z,11.80
2023-05-21T01:34:57.080Z,11.80
2023-05-21T01:37:31.804Z,11.70
2023-05-21T01:40:12.219Z,11.70
2023-05-21T01:42:43.826Z,11.60
2023-05-21T01:45:12.702Z,11.60
2023-05-21T01:47:42.246Z,11.60
2023-05-21T01:50:11.451Z,11.60
2023-05-21T01:52:39.358Z,11.60
2023-05-21T01:55:09.400Z,11.60
2023-05-21T01:57:37.333Z,11.60
2023-05-21T02:00:06.566Z,11.60
2023-05-21T02:02:34.569Z,11.60
2023-05-21T02:05:02.616Z,11.60
2023-05-21T02:07:32.704Z,11.50
2023-05-21T02:10:00.705Z,11.50
2023-05-21T02:12:30.236Z,11.50
2023-05-21T02:14:58.476Z,11.50
2023-05-21T02:17:26.529Z,11.50
2023-05-21T02:19:54.559Z,11.40
2023-05-21T02:22:22.553Z,11.50
2023-05-21T02:24:50.501Z,11.60
2023-05-21T02:27:18.736Z,11.70
2023-05-21T02:29:48.070Z,11.70
2023-05-21T02:32:16.918Z,11.80
2023-05-21T02:34:47.391Z,11.60
2023-05-21T02:37:15.456Z,11.50
2023-05-21T02:39:43.424Z,11.50
2023-05-21T02:42:11.400Z,11.40
2023-05-21T02:44:39.345Z,11.30
2023-05-21T02:47:10.365Z,11.30
2023-05-21T02:49:38.316Z,11.30
2023-05-21T02:52:06.703Z,11.30
2023-05-21T02:54:34.702Z,11.20
2023-05-21T02:57:02.711Z,11.20
2023-05-21T02:59:30.894Z,11.20
2023-05-21T03:01:59.007Z,11.10
2023-05-21T03:04:29.159Z,11.10
2023-05-21T03:06:58.599Z,11.20
2023-05-21T03:09:26.520Z,11.20
2023-05-21T03:11:54.577Z,11.30
2023-05-21T03:14:23.068Z,11.40
2023-05-21T03:16:51.477Z,11.30
2023-05-21T03:19:20.967Z,11.40
2023-05-21T03:21:50.608Z,11.30
2023-05-21T03:24:18.781Z,11.30
2023-05-21T03:26:48.190Z,11.30
2023-05-21T03:29:16.157Z,11.40
2023-05-21T03:31:44.226Z,11.40
2023-05-21T03:34:12.214Z,11.50
2023-05-21T03:36:40.217Z,11.60
2023-05-21T03:39:09.830Z,11.70
2023-05-21T03:41:37.834Z,11.90
2023-05-21T03:44:06.375Z,12.00
2023-05-21T03:46:34.557Z,12.10
2023-05-21T03:49:02.573Z,12.10
2023-05-21T03:51:31.822Z,12.20
2023-05-21T03:54:00.283Z,12.20
2023-05-21T03:56:29.567Z,12.40
2023-05-21T03:58:57.510Z,12.20
2023-05-21T04:01:25.462Z,12.30
2023-05-21T04:03:53.514Z,12.30
2023-05-21T04:06:21.634Z,12.40
2023-05-21T04:08:49.645Z,12.40
2023-05-21T04:11:17.536Z,12.50
2023-05-21T04:13:48.190Z,12.70
2023-05-21T04:16:19.257Z,12.80
2023-05-21T04:18:47.800Z,12.90
2023-05-21T04:21:16.307Z,13.00
2023-05-21T04:23:44.204Z,13.10
2023-05-21T04:26:12.723Z,13.20
2023-05-21T04:28:42.060Z,13.30
2023-05-21T04:31:12.998Z,13.50
2023-05-21T04:33:42.152Z,13.60
2023-05-21T04:36:11.504Z,13.80
2023-05-21T04:38:41.885Z,14.00
2023-05-21T04:41:10.828Z,14.10
2023-05-21T04:43:38.856Z,14.40
2023-05-21T04:46:06.880Z,14.50
2023-05-21T04:48:36.134Z,14.70
2023-05-21T04:51:05.764Z,14.80
2023-05-21T04:53:33.960Z,14.90
2023-05-21T04:56:03.193Z,15.10
2023-05-21T04:58:32.930Z,15.10
2023-05-21T05:01:03.283Z,15.20
2023-05-21T05:03:31.419Z,15.40
2023-05-21T05:06:01.496Z,15.40
2023-05-21T05:08:29.390Z,15.60
2023-05-21T05:10:57.356Z,15.70
2023-05-21T05:13:25.280Z,15.80
2023-05-21T05:15:54.752Z,15.90
2023-05-21T05:18:22.844Z,16.00
2023-05-21T05:20:50.842Z,16.20
2023-05-21T05:23:20.211Z,16.30
2023-05-21T05:25:48.321Z,16.30
2023-05-21T05:28:16.266Z,16.30
2023-05-21T05:30:44.236Z,16.40
2023-05-21T05:33:12.499Z,16.50
2023-05-21T05:35:40.477Z,16.50
2023-05-21T05:38:09.031Z,16.50
2023-05-21T05:40:38.371Z,16.50
2023-05-21T05:43:06.494Z,16.50
2023-05-21T05:45:34.655Z,16.50
2023-05-21T05:48:02.790Z,16.50
2023-05-21T05:50:30.895Z,16.50
2023-05-21T05:52:58.806Z,16.50
2023-05-21T05:55:26.945Z,16.50
2023-05-21T05:57:56.305Z,16.60
2023-05-21T06:00:24.338Z,16.60
2023-05-21T06:02:52.329Z,16.70
2023-05-21T06:05:20.400Z,16.80
2023-05-21T06:07:48.423Z,16.90
2023-05-21T06:10:16.401Z,17.10
2023-05-21T06:12:44.305Z,17.20
2023-05-21T06:15:14.956Z,17.30
2023-05-21T06:17:43.099Z,17.50
2023-05-21T06:20:12.130Z,17.70
2023-05-21T06:22:40.120Z,17.80
2023-05-21T06:25:10.646Z,17.80
2023-05-21T06:27:38.868Z,18.00
2023-05-21T06:30:08.494Z,18.20
2023-05-21T06:32:38.067Z,18.40
2023-05-21T06:35:07.061Z,18.50
2023-05-21T06:37:34.976Z,18.60
2023-05-21T06:40:03.141Z,18.80
2023-05-21T06:42:31.122Z,19.00
2023-05-21T06:44:59.074Z,19.20
2023-05-21T06:47:27.097Z,19.40
2023-05-21T06:49:56.417Z,19.60
2023-05-21T06:52:24.374Z,19.90
2023-05-21T06:54:52.452Z,20.00
2023-05-21T06:57:20.384Z,20.10
2023-05-21T06:59:48.336Z,20.30
2023-05-21T07:02:16.993Z,20.40
2023-05-21T07:04:45.357Z,20.60
2023-05-21T07:07:14.641Z,20.80
2023-05-21T07:09:42.596Z,21.00
2023-05-21T07:12:10.578Z,21.10
2023-05-21T07:14:38.538Z,21.20
2023-05-21T07:17:06.607Z,21.50
2023-05-21T07:19:34.632Z,21.70
2023-05-21T07:22:02.598Z,21.70
2023-05-21T07:24:31.941Z,21.70
2023-05-21T07:27:00.269Z,21.70
2023-05-21T07:29:28.215Z,21.70
2023-05-21T07:31:56.171Z,21.70
2023-05-21T07:34:24.095Z,21.70
2023-05-21T07:36:52.002Z,21.80
2023-05-21T07:39:20.171Z,21.90
2023-05-21T07:41:49.605Z,21.80
2023-05-21T07:44:17.793Z,21.90
2023-05-21T07:46:46.051Z,22.10
2023-05-21T07:49:16.946Z,22.20
2023-05-21T07:51:45.711Z,22.30
2023-05-21T07:54:13.820Z,22.50
2023-05-21T07:56:41.749Z,22.50
2023-05-21T07:59:12.762Z,22.60
2023-05-21T08:01:42.085Z,22.70
2023-05-21T08:04:10.325Z,23.10
2023-05-21T08:06:38.522Z,23.30
2023-05-21T08:09:07.171Z,23.30
2023-05-21T08:11:35.490Z,23.30
2023-05-21T08:14:03.399Z,23.30
2023-05-21T08:16:32.790Z,23.40
2023-05-21T08:19:00.890Z,23.50
2023-05-21T08:21:28.809Z,23.50
2023-05-21T08:23:57.214Z,23.60
2023-05-21T08:26:25.159Z,23.70
2023-05-21T08:28:53.156Z,23.80
2023-05-21T08:31:21.408Z,23.80
2023-05-21T08:33:56.225Z,23.90
2023-05-21T08:36:24.453Z,24.00
2023-05-21T08:38:52.308Z,24.10
2023-05-21T08:41:23.344Z,24.10
2023-05-21T08:43:57.692Z,24.00
2023-05-21T08:46:26.627Z,23.90
2023-05-21T08:48:57.052Z,23.90
2023-05-21T08:51:25.127Z,24.00
2023-05-21T08:53:53.120Z,24.20
2023-05-21T08:56:21.930Z,24.40
2023-05-21T08:58:50.385Z,24.60
2023-05-21T09:01:19.780Z,24.70
2023-05-21T09:03:49.460Z,24.70
2023-05-21T09:06:19.003Z,24.90
2023-05-21T09:08:51.294Z,25.10
2023-05-21T09:11:19.253Z,25.10
2023-05-21T09:13:48.502Z,25.10
2023-05-21T09:16:16.502Z,24.90
2023-05-21T09:18:44.515Z,24.90
2023-05-21T09:21:29.308Z,24.90
2023-05-21T09:23:57.965Z,24.90
2023-05-21T09:26:26.785Z,24.90
2023-05-21T09:28:59.287Z,24.90
2023-05-21T09:31:27.827Z,25.10
2023-05-21T09:33:56.562Z,25.20
2023-05-21T09:36:25.145Z,25.20
2023-05-21T09:38:54.465Z,25.30
2023-05-21T09:41:32.606Z,25.40
2023-05-21T09:44:01.341Z,25.40
2023-05-21T09:46:38.423Z,25.30
2023-05-21T09:49:06.468Z,25.20
2023-05-21T09:51:34.432Z,25.20
2023-05-21T09:54:04.593Z,25.40
2023-05-21T09:56:32.783Z,25.60
2023-05-21T09:59:04.134Z,25.80
2023-05-21T10:01:33.869Z,25.80
2023-05-21T10:04:07.402Z,25.60
2023-05-21T10:06:39.167Z,25.50
2023-05-21T10:09:11.973Z,25.80
2023-05-21T10:11:42.010Z,26.00
2023-05-21T10:14:15.883Z,26.10
2023-05-21T10:16:45.252Z,26.20
2023-05-21T10:19:15.680Z,26.10
2023-05-21T10:21:43.758Z,26.10
2023-05-21T10:24:14.623Z,26.00
2023-05-21T10:26:42.699Z,25.80
2023-05-21T10:29:11.520Z,25.70
2023-05-21T10:31:40.967Z,25.70
2023-05-21T10:34:09.440Z,25.60
2023-05-21T10:36:38.981Z,25.70
2023-05-21T10:39:09.657Z,25.70
2023-05-21T10:41:46.911Z,25.70
2023-05-21T10:44:23.131Z,25.70
2023-05-21T10:47:17.775Z,25.80
2023-05-21T10:50:12.244Z,25.90
2023-05-21T10:53:09.895Z,26.10
2023-05-21T10:55:51.649Z,26.20
2023-05-21T10:58:47.682Z,26.40
2023-05-21T11:01:19.387Z,26.60
2023-05-21T11:03:48.522Z,26.60
2023-05-21T11:06:25.162Z,26.60
2023-05-21T11:08:55.638Z,26.70
2023-05-21T11:11:43.824Z,26.80
2023-05-21T11:14:31.748Z,26.70
2023-05-21T11:17:00.292Z,26.70
2023-05-21T11:19:39.617Z,26.80
2023-05-21T11:22:21.528Z,26.80
2023-05-21T11:24:51.072Z,26.90
2023-05-21T11:27:35.676Z,26.80
2023-05-21T11:30:09.408Z,26.90
2023-05-21T11:32:39.999Z,26.90
2023-05-21T11:35:09.226Z,27.00
2023-05-21T11:37:40.700Z,27.00
2023-05-21T11:40:23.962Z,27.00
2023-05-21T11:42:54.021Z,27.00
2023-05-21T11:45:26.328Z,26.90
2023-05-21T11:47:54.336Z,27.00
2023-05-21T11:50:22.822Z,27.00
2023-05-21T11:52:51.996Z,27.20
2023-05-21T11:55:23.568Z,27.10
2023-05-21T11:57:55.195Z,27.20
2023-05-21T12:00:24.703Z,27.20
2023-05-21T12:02:55.775Z,27.20
2023-05-21T12:05:24.836Z,27.40
2023-05-21T12:07:54.739Z,27.30
2023-05-21T12:10:24.235Z,27.30
2023-05-21T12:12:56.304Z,27.30
2023-05-21T12:15:27.941Z,27.30
2023-05-21T12:17:57.090Z,27.40
2023-05-21T12:20:28.425Z,27.40
2023-05-21T12:22:58.922Z,27.40
2023-05-21T12:25:27.450Z,27.50
2023-05-21T12:27:58.954Z,27.60
2023-05-21T12:30:29.582Z,27.70
2023-05-21T12:33:02.205Z,27.70
2023-05-21T12:35:32.110Z,27.70
2023-05-21T12:38:02.363Z,27.70
2023-05-21T12:40:38.326Z,27.80
2023-05-21T12:43:07.555Z,27.90
2023-05-21T12:45:39.303Z,27.90
2023-05-21T12:48:07.793Z,27.90
2023-05-21T12:50:36.237Z,27.90
2023-05-21T12:53:04.517Z,27.90
2023-05-21T12:55:32.980Z,27.80
2023-05-21T12:58:08.293Z,27.80
2023-05-21T13:00:38.645Z,27.70
2023-05-21T13:03:07.285Z,27.60
2023-05-21T13:05:35.647Z,27.70
2023-05-21T13:08:03.814Z,27.80
2023-05-21T13:10:31.758Z,28.10
2023-05-21T13:13:00.382Z,28.30
2023-05-21T13:15:28.514Z,28.50
2023-05-21T13:17:58.891Z,28.70
2023-05-21T13:20:27.979Z,28.90
2023-05-21T13:22:56.228Z,29.10
2023-05-21T13:25:28.827Z,29.20
2023-05-21T13:27:57.439Z,29.30
2023-05-21T13:30:25.638Z,29.50
2023-05-21T13:32:53.817Z,29.60
2023-05-21T13:35:23.466Z,29.60
2023-05-21T13:37:51.896Z,29.50
2023-05-21T13:40:19.880Z,29.40
2023-05-21T13:42:49.659Z,29.40
2023-05-21T13:45:19.416Z,29.20
2023-05-21T13:47:48.301Z,29.10
2023-05-21T13:50:17.562Z,29.00
2023-05-21T13:52:47.153Z,28.90
2023-05-21T13:55:16.103Z,28.80
2023-05-21T13:57:44.605Z,28.90
2023-05-21T14:00:15.451Z,28.90
2023-05-21T14:02:44.699Z,28.80
2023-05-21T14:05:13.839Z,28.70
2023-05-21T14:07:42.107Z,28.60
2023-05-21T14:10:12.387Z,28.40
2023-05-21T14:12:40.742Z,28.40
2023-05-21T14:15:09.801Z,28.40
2023-05-21T14:17:40.149Z,28.30
2023-05-21T14:20:09.598Z,28.20
2023-05-21T14:22:37.571Z,28.20
2023-05-21T14:25:06.208Z,28.30
2023-05-21T14:27:37.741Z,28.30
2023-05-21T14:30:06.826Z,28.40
2023-05-21T14:32:34.769Z,28.50
2023-05-21T14:35:02.749Z,28.50
2023-05-21T14:37:30.728Z,28.50
2023-05-21T14:39:58.718Z,28.50
2023-05-21T14:42:26.672Z,28.50
2023-05-21T14:44:55.961Z,28.40
2023-05-21T14:47:23.938Z,28.30
2023-05-21T14:49:51.895Z,28.20
2023-05-21T14:52:19.968Z,28.10
2023-05-21T14:54:47.837Z,28.20
2023-05-21T14:57:15.814Z,28.20
2023-05-21T14:59:44.206Z,28.30
2023-05-21T15:02:13.859Z,28.30
2023-05-21T15:04:41.820Z,28.30
2023-05-21T15:07:09.815Z,28.30
2023-05-21T15:09:37.696Z,28.30
2023-05-21T15:12:06.261Z,28.40
2023-05-21T15:14:34.163Z,28.30
2023-05-21T15:17:02.108Z,28.20
2023-05-21T15:19:31.513Z,28.30
2023-05-21T15:21:59.556Z,28.30
2023-05-21T15:24:27.523Z,28.40
2023-05-21T15:26:55.570Z,28.40
2023-05-21T15:29:23.518Z,28.40
2023-05-21T15:31:51.418Z,28.30
2023-05-21T15:34:19.479Z,28.20
2023-05-21T15:36:48.796Z,28.20
2023-05-21T15:39:16.853Z,28.10
2023-05-21T15:41:45.114Z,28.20
2023-05-21T15:44:13.048Z,28.10
2023-05-21T15:46:40.979Z,28.00
2023-05-21T15:49:08.959Z,28.10
2023-05-21T15:51:37.025Z,27.90
2023-05-21T15:54:07.006Z,27.90
2023-05-21T15:56:36.177Z,27.90
2023-05-21T15:59:04.146Z,27.80
2023-05-21T16:01:32.207Z,27.80
2023-05-21T16:04:00.311Z,27.90
2023-05-21T16:06:28.401Z,27.80
2023-05-21T16:08:56.454Z,27.70
2023-05-21T16:11:26.128Z,27.70
2023-05-21T16:13:54.241Z,27.50
2023-05-21T16:16:24.483Z,27.60
2023-05-21T16:18:52.844Z,27.60
2023-05-21T16:21:20.946Z,27.50
2023-05-21T16:23:48.949Z,27.40
2023-05-21T16:26:17.688Z,27.20
2023-05-21T16:28:46.967Z,27.20
2023-05-21T16:31:15.070Z,27.10
2023-05-21T16:33:43.341Z,26.90
2023-05-21T16:36:11.276Z,26.80
2023-05-21T16:38:39.478Z,26.70
2023-05-21T16:41:07.526Z,26.60
2023-05-21T16:43:35.837Z,26.40
2023-05-21T16:46:05.216Z,26.40
2023-05-21T16:48:33.827Z,26.40
2023-05-21T16:51:02.423Z,26.30
2023-05-21T16:53:30.513Z,26.30
2023-05-21T16:55:58.893Z,26.20
2023-05-21T16:58:26.929Z,26.20
2023-05-21T17:00:54.877Z,26.20
2023-05-21T17:03:24.426Z,26.00
2023-05-21T17:05:52.976Z,26.10
2023-05-21T17:08:20.805Z,26.00
2023-05-21T17:10:48.697Z,25.90
2023-05-21T17:13:22.364Z,25.90
2023-05-21T17:15:51.979Z,25.90
2023-05-21T17:18:19.999Z,25.90
2023-05-21T17:20:49.205Z,25.80
2023-05-21T17:23:17.248Z,25.80
2023-05-21T17:25:45.237Z,25.60
2023-05-21T17:28:13.203Z,25.60
2023-05-21T17:30:41.209Z,25.60
2023-05-21T17:33:10.639Z,25.60
2023-05-21T17:35:39.273Z,25.50
2023-05-21T17:38:08.893Z,25.40
2023-05-21T17:40:36.895Z,25.40
2023-05-21T17:43:07.120Z,25.40
2023-05-21T17:45:35.422Z,25.30
2023-05-21T17:48:03.859Z,25.30
2023-05-21T17:50:31.918Z,25.30
2023-05-21T17:53:00.417Z,25.10
2023-05-21T17:55:30.119Z,25.10
2023-05-21T17:57:58.016Z,25.10
2023-05-21T18:00:26.046Z,25.00
2023-05-21T18:02:54.064Z,24.90
2023-05-21T18:05:22.837Z,24.80
2023-05-21T18:07:51.153Z,24.70
2023-05-21T18:10:19.114Z,24.70
2023-05-21T18:12:48.454Z,24.60
2023-05-21T18:15:16.913Z,24.60
2023-05-21T18:17:45.196Z,24.50
2023-05-21T18:20:14.592Z,24.40
2023-05-21T18:22:42.726Z,24.40
2023-05-21T18:25:11.619Z,24.30
2023-05-21T18:27:39.554Z,24.40
2023-05-21T18:30:10.065Z,24.30
2023-05-21T18:32:39.492Z,24.10
2023-05-21T18:35:10.689Z,24.10
2023-05-21T18:37:42.171Z,24.00
2023-05-21T18:40:11.361Z,23.90
2023-05-21T18:42:39.309Z,23.80
2023-05-21T18:45:10.231Z,23.80
2023-05-21T18:47:40.212Z,23.70
2023-05-21T18:50:09.971Z,23.50
2023-05-21T18:52:37.938Z,23.50
2023-05-21T18:55:06.802Z,23.40
2023-05-21T18:57:35.385Z,23.30
2023-05-21T19:00:03.389Z,23.20
2023-05-21T19:02:32.753Z,23.10
2023-05-21T19:05:01.916Z,23.00
2023-05-21T19:07:29.973Z,22.90
2023-05-21T19:09:59.884Z,22.80
2023-05-21T19:12:29.360Z,22.70
2023-05-21T19:14:57.414Z,22.60
2023-05-21T19:17:25.573Z,22.60
2023-05-21T19:19:56.734Z,22.60
2023-05-21T19:22:24.968Z,22.60
2023-05-21T19:24:53.023Z,22.60
2023-05-21T19:27:21.210Z,22.50
2023-05-21T19:29:49.880Z,22.40
2023-05-21T19:32:17.962Z,22.40
2023-05-21T19:34:46.624Z,22.30
2023-05-21T19:37:16.898Z,22.20
2023-05-21T19:39:45.059Z,22.10
2023-05-21T19:42:13.003Z,22.10
2023-05-21T19:44:41.364Z,22.10
2023-05-21T19:47:09.691Z,22.00
2023-05-21T19:49:37.849Z,21.90
2023-05-21T19:52:06.793Z,22.00
2023-05-21T19:54:36.389Z,22.10
2023-05-21T19:57:04.434Z,22.10
2023-05-21T19:59:32.534Z,22.10
2023-05-21T20:02:00.475Z,22.20
2023-05-21T20:04:28.599Z,22.10
2023-05-21T20:06:56.552Z,22.20
2023-05-21T20:09:24.492Z,22.20
2023-05-21T20:11:54.198Z,22.20
2023-05-21T20:14:22.154Z,22.20
2023-05-21T20:16:50.265Z,22.10
2023-05-21T20:19:18.664Z,22.00
2023-05-21T20:21:46.935Z,21.90
2023-05-21T20:24:15.102Z,21.90
2023-05-21T20:26:44.983Z,21.90
2023-05-21T20:29:14.275Z,21.90
2023-05-21T20:31:42.242Z,21.80
2023-05-21T20:34:12.297Z,21.80
2023-05-21T20:36:41.402Z,21.90
2023-05-21T20:39:09.535Z,21.90
2023-05-21T20:41:38.686Z,21.90
2023-05-21T20:44:07.253Z,21.90
2023-05-21T20:46:38.254Z,21.90
2023-05-21T20:49:06.747Z,21.80
2023-05-21T20:51:34.976Z,21.80
2023-05-21T20:54:03.023Z,21.80
2023-05-21T20:56:41.432Z,21.70
2023-05-21T20:59:12.088Z,21.80
2023-05-21T21:01:42.592Z,21.80
2023-05-21T21:04:10.581Z,21.70
2023-05-21T21:06:42.030Z,21.60
2023-05-21T21:09:10.167Z,21.60
2023-05-21T21:11:38.100Z,21.60
2023-05-21T21:14:06.056Z,21.50
2023-05-21T21:16:34.101Z,21.50
2023-05-21T21:19:03.603Z,21.40
2023-05-21T21:21:31.792Z,21.40
2023-05-21T21:23:59.692Z,21.40
2023-05-21T21:26:27.798Z,21.30
2023-05-21T21:28:56.344Z,21.30
2023-05-21T21:31:25.075Z,21.20
2023-05-21T21:33:53.271Z,21.20
2023-05-21T21:36:22.697Z,21.20
2023-05-21T21:38:50.801Z,21.10
2023-05-21T21:41:20.384Z,21.00
2023-05-21T21:43:48.438Z,20.90
2023-05-21T21:46:16.793Z,20.80
2023-05-21T21:48:45.008Z,20.80
2023-05-21T21:51:14.065Z,20.80
2023-05-21T21:53:44.153Z,20.80
2023-05-21T21:56:12.274Z,20.70
2023-05-21T21:58:40.413Z,20.70
2023-05-21T22:01:08.400Z,20.60
2023-05-21T22:03:37.844Z,20.60
2023-05-21T22:06:06.194Z,20.50
2023-05-21T22:08:34.208Z,20.50
2023-05-21T22:11:03.823Z,20.50
2023-05-21T22:13:31.765Z,20.40
2023-05-21T22:15:59.843Z,20.40
2023-05-21T22:18:39.500Z,20.30
2023-05-21T22:21:09.786Z,20.10
2023-05-21T22:23:38.430Z,20.00
2023-05-21T22:26:07.981Z,20.00
2023-05-21T22:28:35.977Z,19.90
2023-05-21T22:31:04.118Z,19.90
2023-05-21T22:33:32.252Z,19.90
2023-05-21T22:36:00.172Z,19.80
2023-05-21T22:38:28.066Z,19.70
2023-05-21T22:40:56.170Z,19.80
2023-05-21T22:43:26.256Z,19.80
2023-05-21T22:45:54.316Z,19.70
2023-05-21T22:48:24.956Z,19.60
2023-05-21T22:50:53.527Z,19.50
2023-05-21T22:53:21.792Z,19.50
2023-05-21T22:55:50.036Z,19.50
2023-05-21T22:58:18.407Z,19.50
2023-05-21T23:00:48.321Z,19.50
2023-05-21T23:03:16.825Z,19.50
2023-05-21T23:05:45.646Z,19.40
2023-05-21T23:08:14.052Z,19.30
2023-05-21T23:10:42.060Z,19.40
2023-05-21T23:13:09.977Z,19.20
2023-05-21T23:15:39.080Z,19.10
2023-05-21T23:18:08.924Z,19.10
2023-05-21T23:20:39.473Z,19.00
2023-05-21T23:23:07.722Z,18.90
2023-05-21T23:25:36.242Z,18.90
2023-05-21T23:28:04.291Z,18.80
2023-05-21T23:30:32.278Z,18.80
2023-05-21T23:33:00.568Z,18.60
2023-05-21T23:35:29.996Z,18.60
2023-05-21T23:37:58.011Z,18.50
2023-05-21T23:40:26.000Z,18.40
2023-05-21T23:42:53.969Z,18.40
2023-05-21T23:45:21.989Z,18.40
2023-05-21T23:47:50.765Z,18.40
2023-05-21T23:50:18.878Z,18.30
2023-05-21T23:52:48.442Z,18.30
2023-05-21T23:55:16.666Z,18.30
2023-05-21T23:57:44.749Z,18.20
